LCLK/LCA METAR and TAF weather

Enter ICAO airport designator
Station Type Date Time Source
LCLK METAR 2019/04/26 04:00 UTC NOAA

LCLK 260400Z VRB01KT CAVOK 15/13 Q1018 NOSIG


Station Type Date Time Source
LCLK Decoded METAR 2019/04/26 04:00 UTC NOAA

Larnaca Airport, Cyprus (LCLK) 34-53N 033-38E 2M
Apr 26, 2019 - 12:00 AM EDT / 2019.04.26 0400 UTC
Wind: Variable at 1 MPH (1 KT):0
Visibility: greater than 7 mile(s):0
Temperature: 59 F (15 C)
Dew Point: 55 F (13 C)
Relative Humidity: 87%
Pressure (altimeter): 30.06 in. Hg (1018 hPa)
ob: LCLK 260400Z VRB01KT CAVOK 15/13 Q1018 NOSIG
cycle: 4

Station Type Date Time Source
LCLK TAF 2019/04/25 18:33 UTC NOAA

TAF TAF LCLK 251730Z 2518/2618 32006KT 9999 FEW020 PROB30
TEMPO 2518/2618 5000 DU
BECMG 2608/2611 20012KT
BECMG 2616/2618 32006KT

Example: see airport list